createdAt,value
2018-06-27T00:00:13.022Z,98.67
2018-06-27T00:01:13.030Z,98.96
2018-06-27T00:02:12.771Z,98.67
2018-06-27T00:03:13.027Z,98.86
2018-06-27T00:04:13.016Z,99.43
2018-06-27T00:05:13.024Z,99.34
2018-06-27T00:06:13.010Z,98.96
2018-06-27T00:07:13.024Z,99.05
2018-06-27T00:08:13.037Z,98.96
2018-06-27T00:09:13.020Z,99.15
2018-06-27T00:10:13.030Z,99.05
2018-06-27T00:11:13.017Z,99.34
2018-06-27T00:12:12.760Z,99.53
2018-06-27T00:13:16.224Z,99.72
2018-06-27T00:14:13.008Z,99.91
2018-06-27T00:15:12.815Z,99.82
2018-06-27T00:16:13.004Z,99.99
2018-06-27T00:17:12.755Z,99.82
2018-06-27T00:18:13.005Z,99.72
2018-06-27T00:19:13.024Z,99.91
2018-06-27T00:20:13.010Z,99.99
2018-06-27T00:21:12.751Z,99.99
2018-06-27T00:22:12.756Z,99.99
2018-06-27T00:23:13.007Z,99.99
2018-06-27T00:24:13.011Z,99.99
2018-06-27T00:25:12.759Z,99.99
2018-06-27T00:26:13.008Z,99.99
2018-06-27T00:27:12.755Z,99.99
2018-06-27T00:28:13.006Z,99.99
2018-06-27T00:29:13.015Z,99.99
2018-06-27T00:30:13.004Z,99.99
2018-06-27T00:31:12.768Z,99.99
2018-06-27T00:32:13.008Z,99.99
2018-06-27T00:33:13.016Z,99.99
2018-06-27T00:34:12.750Z,99.99
2018-06-27T00:35:12.848Z,99.99
2018-06-27T00:36:13.018Z,99.99
2018-06-27T00:37:13.002Z,99.99
2018-06-27T00:38:13.012Z,99.99
2018-06-27T00:39:13.011Z,99.99
2018-06-27T00:40:13.004Z,99.99
2018-06-27T00:41:13.007Z,99.99
2018-06-27T00:42:13.000Z,99.99
2018-06-27T00:43:12.745Z,99.99
2018-06-27T00:44:13.252Z,99.99
2018-06-27T00:45:13.005Z,99.99
2018-06-27T00:46:13.108Z,99.99
2018-06-27T00:47:13.105Z,99.99
2018-06-27T00:48:13.103Z,99.99
2018-06-27T00:49:13.115Z,99.99
2018-06-27T00:50:13.086Z,99.99
2018-06-27T00:51:13.112Z,99.99
2018-06-27T00:52:13.114Z,99.99
2018-06-27T00:53:13.101Z,99.99
2018-06-27T00:54:13.112Z,99.99
2018-06-27T00:55:13.123Z,99.99
2018-06-27T00:56:13.123Z,99.99
2018-06-27T00:57:12.969Z,99.99
2018-06-27T00:58:12.963Z,99.99
2018-06-27T00:59:13.771Z,99.99
2018-06-27T01:00:12.988Z,99.99
2018-06-27T01:01:12.988Z,99.99
2018-06-27T01:02:13.011Z,99.99
2018-06-27T01:03:12.989Z,99.99
2018-06-27T01:04:12.981Z,99.99
2018-06-27T01:05:12.720Z,99.99
2018-06-27T01:06:12.983Z,99.99
2018-06-27T01:07:12.981Z,99.99
2018-06-27T01:08:12.736Z,99.99
2018-06-27T01:09:12.739Z,99.99
2018-06-27T01:10:12.984Z,99.99
2018-06-27T01:11:12.977Z,99.99
2018-06-27T01:12:12.975Z,99.99
2018-06-27T01:13:12.978Z,99.99
2018-06-27T01:14:12.980Z,99.99
2018-06-27T01:15:12.961Z,99.99
2018-06-27T01:16:12.713Z,99.99
2018-06-27T01:17:12.977Z,99.99
2018-06-27T01:18:12.977Z,99.99
2018-06-27T01:19:13.004Z,99.99
2018-06-27T01:20:13.101Z,99.99
2018-06-27T01:21:12.979Z,99.99
2018-06-27T01:22:12.964Z,99.99
2018-06-27T01:23:12.962Z,99.99
2018-06-27T01:24:13.782Z,99.99
2018-06-27T01:25:12.963Z,99.99
2018-06-27T01:26:12.963Z,99.99
2018-06-27T01:27:12.961Z,99.99
2018-06-27T01:28:12.961Z,99.99
2018-06-27T01:29:12.716Z,99.99
2018-06-27T01:30:12.969Z,99.99
2018-06-27T01:31:12.957Z,99.99
2018-06-27T01:32:12.954Z,99.99
2018-06-27T01:33:12.714Z,99.99
2018-06-27T01:34:12.969Z,99.99
2018-06-27T01:35:12.704Z,99.99
2018-06-27T01:36:12.955Z,99.99
2018-06-27T01:37:12.952Z,99.99
2018-06-27T01:38:12.964Z,99.99
2018-06-27T01:39:12.949Z,99.99
2018-06-27T01:40:12.698Z,99.99
2018-06-27T01:41:12.951Z,99.99
2018-06-27T01:42:12.952Z,99.99
2018-06-27T01:43:12.952Z,99.99
2018-06-27T01:44:12.699Z,99.99
2018-06-27T01:45:12.955Z,99.99
2018-06-27T01:46:13.013Z,99.99
2018-06-27T01:47:12.957Z,99.99
2018-06-27T01:48:12.958Z,99.99
2018-06-27T01:49:12.958Z,99.99
2018-06-27T01:50:12.945Z,99.99
2018-06-27T01:51:12.937Z,99.99
2018-06-27T01:52:12.945Z,99.99
2018-06-27T01:53:12.950Z,99.99
2018-06-27T01:54:12.960Z,99.99
2018-06-27T01:55:12.683Z,99.99
2018-06-27T01:56:12.938Z,99.99
2018-06-27T01:57:12.959Z,99.99
2018-06-27T01:58:12.940Z,99.99
2018-06-27T01:59:12.936Z,99.99
2018-06-27T02:00:12.706Z,99.99
2018-06-27T02:01:12.938Z,99.99
2018-06-27T02:02:12.683Z,99.99
2018-06-27T02:03:12.936Z,99.99
2018-06-27T02:04:12.929Z,99.99
2018-06-27T02:05:12.938Z,99.99
2018-06-27T02:06:12.940Z,99.99
2018-06-27T02:07:12.930Z,99.99
2018-06-27T02:08:12.929Z,99.99
2018-06-27T02:09:12.932Z,99.99
2018-06-27T02:10:12.929Z,99.99
2018-06-27T02:11:12.931Z,99.99
2018-06-27T02:12:12.926Z,99.99
2018-06-27T02:13:12.925Z,99.99
2018-06-27T02:14:12.933Z,99.99
2018-06-27T02:15:13.180Z,99.99
2018-06-27T02:16:12.934Z,99.99
2018-06-27T02:17:12.927Z,99.99
2018-06-27T02:18:12.924Z,99.99
2018-06-27T02:19:12.920Z,99.99
2018-06-27T02:20:12.915Z,99.99
2018-06-27T02:21:12.917Z,99.99
2018-06-27T02:22:12.913Z,99.99
2018-06-27T02:23:12.920Z,99.99
2018-06-27T02:24:12.660Z,99.99
2018-06-27T02:25:12.920Z,99.99
2018-06-27T02:26:12.928Z,99.99
2018-06-27T02:27:12.909Z,99.99
2018-06-27T02:28:12.918Z,99.99
2018-06-27T02:29:12.661Z,99.99
2018-06-27T02:30:13.716Z,99.99
2018-06-27T02:31:12.914Z,99.99
2018-06-27T02:32:12.672Z,99.99
2018-06-27T02:33:12.907Z,99.99
2018-06-27T02:34:12.658Z,99.99
2018-06-27T02:35:12.904Z,99.99
2018-06-27T02:36:12.901Z,99.99
2018-06-27T02:37:12.906Z,99.99
2018-06-27T02:38:12.910Z,99.99
2018-06-27T02:39:12.909Z,99.99
2018-06-27T02:40:12.896Z,99.99
2018-06-27T02:41:12.897Z,99.99
2018-06-27T02:42:12.901Z,99.99
2018-06-27T02:43:12.907Z,99.99
2018-06-27T02:44:12.915Z,99.99
2018-06-27T02:45:12.902Z,99.99
2018-06-27T02:46:12.908Z,99.99
2018-06-27T02:47:12.928Z,99.99
2018-06-27T02:48:12.884Z,99.99
2018-06-27T02:49:12.888Z,99.99
2018-06-27T02:50:12.631Z,99.99
2018-06-27T02:51:12.900Z,99.99
2018-06-27T02:52:12.885Z,99.99
2018-06-27T02:53:12.886Z,99.99
2018-06-27T02:54:12.895Z,99.99
2018-06-27T02:55:12.886Z,99.99
2018-06-27T02:56:12.889Z,99.99
2018-06-27T02:57:12.886Z,99.99
2018-06-27T02:58:12.630Z,99.99
2018-06-27T02:59:12.877Z,99.99
2018-06-27T03:00:13.685Z,99.99
2018-06-27T03:01:12.885Z,99.99
2018-06-27T03:02:12.890Z,99.99
2018-06-27T03:03:12.878Z,99.99
2018-06-27T03:04:12.876Z,99.99
2018-06-27T03:05:12.865Z,99.99
2018-06-27T03:06:12.881Z,99.99
2018-06-27T03:07:12.881Z,99.99
2018-06-27T03:08:12.868Z,99.99
2018-06-27T03:09:12.867Z,99.99
2018-06-27T03:10:12.869Z,99.99
2018-06-27T03:11:12.867Z,99.99
2018-06-27T03:12:12.863Z,99.99
2018-06-27T03:13:12.608Z,99.99
2018-06-27T03:14:12.867Z,99.99
2018-06-27T03:15:12.604Z,99.99
2018-06-27T03:16:12.866Z,99.99
2018-06-27T03:17:12.860Z,99.99
2018-06-27T03:18:12.601Z,99.99
2018-06-27T03:19:12.851Z,99.99
2018-06-27T03:20:12.852Z,99.99
2018-06-27T03:21:12.853Z,99.99
2018-06-27T03:22:12.859Z,99.99
2018-06-27T03:23:12.846Z,99.99
2018-06-27T03:24:12.850Z,99.99
2018-06-27T03:25:12.597Z,99.99
2018-06-27T03:26:12.604Z,99.99
2018-06-27T03:27:12.588Z,99.99
2018-06-27T03:28:12.842Z,99.99
2018-06-27T03:29:12.590Z,99.99
2018-06-27T03:30:12.850Z,99.99
2018-06-27T03:31:12.858Z,99.99
2018-06-27T03:32:12.834Z,99.99
2018-06-27T03:33:12.837Z,99.99
2018-06-27T03:34:12.579Z,99.99
2018-06-27T03:35:12.970Z,99.99
2018-06-27T03:36:12.588Z,99.99
2018-06-27T03:37:12.832Z,99.99
2018-06-27T03:38:12.576Z,99.99
2018-06-27T03:39:12.598Z,99.99
2018-06-27T03:40:12.938Z,99.99
2018-06-27T03:41:12.833Z,99.99
2018-06-27T03:42:12.576Z,99.99
2018-06-27T03:43:12.580Z,99.99
2018-06-27T03:44:12.570Z,99.99
2018-06-27T03:45:12.833Z,99.99
2018-06-27T03:46:12.831Z,99.99
2018-06-27T03:47:12.563Z,99.99
2018-06-27T03:48:12.816Z,99.99
2018-06-27T03:49:12.573Z,99.99
2018-06-27T03:50:12.857Z,99.99
2018-06-27T03:51:12.816Z,99.99
2018-06-27T03:52:12.827Z,99.99
2018-06-27T03:53:12.813Z,99.99
2018-06-27T03:54:12.556Z,99.99
2018-06-27T03:55:12.605Z,99.99
2018-06-27T03:56:12.810Z,99.99
2018-06-27T03:57:12.819Z,99.99
2018-06-27T03:58:12.551Z,99.99
2018-06-27T03:59:12.819Z,99.99
2018-06-27T04:00:12.548Z,99.99
2018-06-27T04:01:13.364Z,99.99
2018-06-27T04:02:12.555Z,99.99
2018-06-27T04:03:12.548Z,99.99
2018-06-27T04:04:12.557Z,99.99
2018-06-27T04:05:12.628Z,99.99
2018-06-27T04:06:12.801Z,99.99
2018-06-27T04:07:12.548Z,99.99
2018-06-27T04:08:12.797Z,99.99
2018-06-27T04:09:12.545Z,99.99
2018-06-27T04:10:12.586Z,99.99
2018-06-27T04:11:12.801Z,99.99
2018-06-27T04:12:12.545Z,99.99
2018-06-27T04:13:12.620Z,99.99
2018-06-27T04:14:12.531Z,99.99
2018-06-27T04:15:12.881Z,99.99
2018-06-27T04:16:12.810Z,99.99
2018-06-27T04:17:12.800Z,99.99
2018-06-27T04:18:12.803Z,99.99
2018-06-27T04:19:12.547Z,99.99
2018-06-27T04:20:12.997Z,99.99
2018-06-27T04:21:12.525Z,99.99
2018-06-27T04:22:12.781Z,99.99
2018-06-27T04:23:12.794Z,99.99
2018-06-27T04:24:12.781Z,99.99
2018-06-27T04:25:12.646Z,99.99
2018-06-27T04:26:12.783Z,99.99
2018-06-27T04:27:12.531Z,99.99
2018-06-27T04:28:12.783Z,99.99
2018-06-27T04:29:12.784Z,99.99
2018-06-27T04:30:12.791Z,99.99
2018-06-27T04:31:13.579Z,99.99
2018-06-27T04:32:12.772Z,99.99
2018-06-27T04:33:12.775Z,99.99
2018-06-27T04:34:12.786Z,99.99
2018-06-27T04:35:12.659Z,99.99
2018-06-27T04:36:13.157Z,99.99
2018-06-27T04:37:12.776Z,99.99
2018-06-27T04:38:12.793Z,99.99
2018-06-27T04:39:12.782Z,99.99
2018-06-27T04:40:12.630Z,99.99
2018-06-27T04:41:12.520Z,99.99
2018-06-27T04:42:12.534Z,99.99
2018-06-27T04:43:12.561Z,99.99
2018-06-27T04:44:12.773Z,99.99
2018-06-27T04:45:12.522Z,99.99
2018-06-27T04:46:12.835Z,99.99
2018-06-27T04:47:12.781Z,99.99
2018-06-27T04:48:12.771Z,99.99
2018-06-27T04:49:12.525Z,99.99
2018-06-27T04:50:12.776Z,99.99
2018-06-27T04:51:12.788Z,99.87
2018-06-27T04:52:12.776Z,99.99
2018-06-27T04:53:12.774Z,99.1
2018-06-27T04:54:12.776Z,99.68
2018-06-27T04:55:12.776Z,99.99
2018-06-27T04:56:12.774Z,99.48
2018-06-27T04:57:12.812Z,99.96
2018-06-27T04:58:12.516Z,99.29
2018-06-27T04:59:12.522Z,99.19
2018-06-27T05:00:12.566Z,99.39
2018-06-27T05:01:13.317Z,99.01
2018-06-27T05:02:13.461Z,99.1
2018-06-27T05:03:12.521Z,99.19
2018-06-27T05:04:12.545Z,98.43
2018-06-27T05:05:12.888Z,98.72
2018-06-27T05:06:12.521Z,98.91
2018-06-27T05:07:12.766Z,98.05
2018-06-27T05:08:12.516Z,97.71
2018-06-27T05:09:12.789Z,97.28
2018-06-27T05:10:12.792Z,97.42
2018-06-27T05:11:12.785Z,97.23
2018-06-27T05:12:12.518Z,96.47
2018-06-27T05:13:12.768Z,96.66
2018-06-27T05:14:12.784Z,97.23
2018-06-27T05:15:12.877Z,96.37
2018-06-27T05:16:12.784Z,96.75
2018-06-27T05:17:12.790Z,95.7
2018-06-27T05:18:12.771Z,95.7
2018-06-27T05:19:12.545Z,96.85
2018-06-27T05:20:13.014Z,96.56
2018-06-27T05:21:12.789Z,96.75
2018-06-27T05:22:12.542Z,96.37
2018-06-27T05:23:12.806Z,96.66
2018-06-27T05:24:12.537Z,95.89
2018-06-27T05:25:12.547Z,96.7
2018-06-27T05:26:12.534Z,97.85
2018-06-27T05:27:12.823Z,97.76
2018-06-27T05:28:12.529Z,98.62
2018-06-27T05:29:12.528Z,98.52
2018-06-27T05:30:12.530Z,98.91
2018-06-27T05:31:13.333Z,98.62
2018-06-27T05:32:12.824Z,97.56
2018-06-27T05:33:12.528Z,97.47
2018-06-27T05:34:12.801Z,97.14
2018-06-27T05:35:12.803Z,96.7
2018-06-27T05:36:12.822Z,97.18
2018-06-27T05:37:12.793Z,97.66
2018-06-27T05:38:12.781Z,96.94
2018-06-27T05:39:12.807Z,96.66
2018-06-27T05:40:12.854Z,95.89
2018-06-27T05:41:12.793Z,95.21
2018-06-27T05:42:12.546Z,95.31
2018-06-27T05:43:12.537Z,94.64
2018-06-27T05:44:12.938Z,94.31
2018-06-27T05:45:12.597Z,92.96
2018-06-27T05:46:15.998Z,93.25
2018-06-27T05:47:12.798Z,92.39
2018-06-27T05:48:12.809Z,90.85
2018-06-27T05:49:12.798Z,89.07
2018-06-27T05:50:12.568Z,87.68
2018-06-27T05:51:12.797Z,87.29
2018-06-27T05:52:12.806Z,87.19
2018-06-27T05:53:12.802Z,85.95
2018-06-27T05:54:12.798Z,86.09
2018-06-27T05:55:12.553Z,85.41
2018-06-27T05:56:12.810Z,84.84
2018-06-27T05:57:12.559Z,85.13
2018-06-27T05:58:13.042Z,84.11
2018-06-27T05:59:12.812Z,83.44
2018-06-27T06:00:12.593Z,82.81
2018-06-27T06:01:12.826Z,82.23
2018-06-27T06:02:12.829Z,80.69
2018-06-27T06:03:12.580Z,79.77
2018-06-27T06:04:12.823Z,78.23
2018-06-27T06:05:12.893Z,77.36
2018-06-27T06:06:12.574Z,77.4
2018-06-27T06:07:12.822Z,75.86
2018-06-27T06:08:12.838Z,73.05
2018-06-27T06:09:12.843Z,71.34
2018-06-27T06:10:12.793Z,70.19
2018-06-27T06:11:12.886Z,70
2018-06-27T06:12:12.605Z,71.25
2018-06-27T06:13:12.593Z,72.37
2018-06-27T06:14:12.609Z,74.07
2018-06-27T06:15:12.740Z,74.45
2018-06-27T06:16:12.602Z,74.93
2018-06-27T06:17:15.322Z,76.44
2018-06-27T06:18:12.609Z,77.01
2018-06-27T06:19:12.888Z,76.34
2018-06-27T06:20:12.878Z,76.82
2018-06-27T06:21:12.617Z,76.25
2018-06-27T06:22:12.632Z,76.53
2018-06-27T06:23:12.882Z,77.11
2018-06-27T06:24:12.889Z,77.08
2018-06-27T06:25:12.950Z,76.11
2018-06-27T06:26:12.908Z,76.78
2018-06-27T06:27:12.907Z,75.76
2018-06-27T06:28:12.898Z,73.88
2018-06-27T06:29:12.903Z,73.39
2018-06-27T06:30:12.927Z,73.68
2018-06-27T06:31:12.915Z,73.68
2018-06-27T06:32:13.785Z,73.2
2018-06-27T06:33:12.673Z,72.08
2018-06-27T06:34:12.919Z,68.55
2018-06-27T06:35:12.939Z,67.23
2018-06-27T06:36:12.930Z,67.07
2018-06-27T06:37:12.930Z,65.63
2018-06-27T06:38:12.946Z,64.53
2018-06-27T06:39:12.942Z,63.66
2018-06-27T06:40:12.691Z,61.86
2018-06-27T06:41:12.970Z,61.11
2018-06-27T06:42:12.703Z,59.79
2018-06-27T06:43:12.969Z,57.59
2018-06-27T06:44:12.964Z,57.23
2018-06-27T06:45:12.753Z,59.23
2018-06-27T06:46:13.070Z,60.72
2018-06-27T06:47:12.999Z,61.02
2018-06-27T06:48:12.997Z,61.6
2018-06-27T06:49:12.997Z,62.44
2018-06-27T06:50:13.000Z,63.56
2018-06-27T06:51:12.755Z,65.37
2018-06-27T06:52:12.836Z,67.17
2018-06-27T06:53:12.769Z,67.43
2018-06-27T06:54:12.774Z,68.39
2018-06-27T06:55:12.787Z,69.32
2018-06-27T06:56:13.035Z,70
2018-06-27T06:57:13.046Z,69.8
2018-06-27T06:58:13.035Z,68.55
2018-06-27T06:59:12.793Z,68.35
2018-06-27T07:00:13.049Z,67.04
2018-06-27T07:01:13.058Z,67.14
2018-06-27T07:02:12.811Z,67.62
2018-06-27T07:03:13.066Z,67.91
2018-06-27T07:04:12.813Z,69.51
2018-06-27T07:05:12.815Z,69.77
2018-06-27T07:06:13.091Z,68.8
2018-06-27T07:07:13.082Z,68.16
2018-06-27T07:08:12.829Z,67.78
2018-06-27T07:09:12.835Z,65.78
2018-06-27T07:10:13.095Z,65.82
2018-06-27T07:11:13.375Z,65.72
2018-06-27T07:12:13.111Z,63.05
2018-06-27T07:13:13.110Z,61.54
2018-06-27T07:14:12.909Z,58.95
2018-06-27T07:15:13.207Z,57.34
2018-06-27T07:16:13.119Z,57.28
2018-06-27T07:17:13.129Z,57.11
2018-06-27T07:18:12.902Z,56.62
2018-06-27T07:19:12.899Z,55
2018-06-27T07:20:12.909Z,53.02
2018-06-27T07:21:12.946Z,52.28
2018-06-27T07:22:13.181Z,50.84
2018-06-27T07:23:13.167Z,50.29
2018-06-27T07:24:13.197Z,50.87
2018-06-27T07:25:12.952Z,52.11
2018-06-27T07:26:13.285Z,52.83
2018-06-27T07:27:12.934Z,55.04
2018-06-27T07:28:13.221Z,55.58
2018-06-27T07:29:12.957Z,54.16
2018-06-27T07:30:12.956Z,53.19
2018-06-27T07:31:12.957Z,52.54
2018-06-27T07:32:13.221Z,51.64
2018-06-27T07:33:12.981Z,51.64
2018-06-27T07:34:13.229Z,52.22
2018-06-27T07:35:12.984Z,52.12
2018-06-27T07:36:12.998Z,52.73
2018-06-27T07:37:13.023Z,51.57
2018-06-27T07:38:13.267Z,51.67
2018-06-27T07:39:13.269Z,50.92
2018-06-27T07:40:13.272Z,51.31
2018-06-27T07:41:13.279Z,52.61
2018-06-27T07:42:13.294Z,52.87
2018-06-27T07:43:13.046Z,53.55
2018-06-27T07:44:13.310Z,52.68
2018-06-27T07:45:13.049Z,50.79
2018-06-27T07:46:13.310Z,49.37
2018-06-27T07:47:13.328Z,48.9
2018-06-27T07:48:13.341Z,48.44
2018-06-27T07:49:13.074Z,48.64
2018-06-27T07:50:13.345Z,49.22
2018-06-27T07:51:13.354Z,49.77
2018-06-27T07:52:13.356Z,49.87
2018-06-27T07:53:13.348Z,49.9
2018-06-27T07:54:13.111Z,49.77
2018-06-27T07:55:13.445Z,48.25
2018-06-27T07:56:13.376Z,47.76
2018-06-27T07:57:13.400Z,48.35
2018-06-27T07:58:13.393Z,49.49
2018-06-27T07:59:13.416Z,49.17
2018-06-27T08:00:13.162Z,49.95
2018-06-27T08:01:13.184Z,51.11
2018-06-27T08:02:13.413Z,48.69
2018-06-27T08:03:13.187Z,49.49
2018-06-27T08:04:13.430Z,48.73
2018-06-27T08:05:13.455Z,47.2
2018-06-27T08:06:13.455Z,46.15
2018-06-27T08:07:13.456Z,45.5
2018-06-27T08:08:13.465Z,43.11
2018-06-27T08:09:13.219Z,41.11
2018-06-27T08:10:13.479Z,42.1
2018-06-27T08:11:13.231Z,40.93
2018-06-27T08:12:13.589Z,39.49
2018-06-27T08:13:13.507Z,37.65
2018-06-27T08:14:13.252Z,37.96
2018-06-27T08:15:13.520Z,39.12
2018-06-27T08:16:13.516Z,39.88
2018-06-27T08:17:13.533Z,41.01
2018-06-27T08:18:13.548Z,40.99
2018-06-27T08:19:13.540Z,40.5
2018-06-27T08:20:13.578Z,41.67
2018-06-27T08:21:13.558Z,43.4
2018-06-27T08:22:13.586Z,42.97
2018-06-27T08:23:13.573Z,43.15
2018-06-27T08:24:13.572Z,43.34
2018-06-27T08:25:13.333Z,43.34
2018-06-27T08:26:13.873Z,43.34
2018-06-27T08:27:13.611Z,43.34
2018-06-27T08:28:13.609Z,43.24
2018-06-27T08:29:13.360Z,42.85
2018-06-27T08:30:13.370Z,42.68
2018-06-27T08:31:13.374Z,42.29
2018-06-27T08:32:13.388Z,41.14
2018-06-27T08:33:13.390Z,41.36
2018-06-27T08:34:13.416Z,40.97
2018-06-27T08:35:13.409Z,40.97
2018-06-27T08:36:13.416Z,41.06
2018-06-27T08:37:13.676Z,40.48
2018-06-27T08:38:13.425Z,38.95
2018-06-27T08:39:13.427Z,38.57
2018-06-27T08:40:13.437Z,39.34
2018-06-27T08:41:13.698Z,40.29
2018-06-27T08:42:13.709Z,41.44
2018-06-27T08:43:13.721Z,41.61
2018-06-27T08:44:13.717Z,41.71
2018-06-27T08:45:13.737Z,41.32
2018-06-27T08:46:13.732Z,41.05
2018-06-27T08:47:13.741Z,40.88
2018-06-27T08:48:13.502Z,41.85
2018-06-27T08:49:13.759Z,41.85
2018-06-27T08:50:13.507Z,39.34
2018-06-27T08:51:13.773Z,39.36
2018-06-27T08:52:13.522Z,39.65
2018-06-27T08:53:13.780Z,39.28
2018-06-27T08:54:13.541Z,38.98
2018-06-27T08:55:13.798Z,38.4
2018-06-27T08:56:13.812Z,37.25
2018-06-27T08:57:13.562Z,37.63
2018-06-27T08:58:13.819Z,38.79
2018-06-27T08:59:13.844Z,39.94
2018-06-27T09:00:13.842Z,41.06
2018-06-27T09:01:13.841Z,42.68
2018-06-27T09:02:13.861Z,43.9
2018-06-27T09:03:13.864Z,45.72
2018-06-27T09:04:13.612Z,47.3
2018-06-27T09:05:13.895Z,48.83
2018-06-27T09:06:13.882Z,49.87
2018-06-27T09:07:13.634Z,50.33
2018-06-27T09:08:13.902Z,51.88
2018-06-27T09:09:13.916Z,52.53
2018-06-27T09:10:13.911Z,53.5
2018-06-27T09:11:13.928Z,53.47
2018-06-27T09:12:13.946Z,53.96
2018-06-27T09:13:13.920Z,54.9
2018-06-27T09:14:13.943Z,55.47
2018-06-27T09:15:13.952Z,55.77
2018-06-27T09:16:13.963Z,56.54
2018-06-27T09:17:13.960Z,54.9
2018-06-27T09:18:16.428Z,54.15
2018-06-27T09:19:13.965Z,54.35
2018-06-27T09:20:13.711Z,54.05
2018-06-27T09:21:13.970Z,53.5
2018-06-27T09:22:13.984Z,53.96
2018-06-27T09:23:13.991Z,53.89
2018-06-27T09:24:13.991Z,54.44
2018-06-27T09:25:13.993Z,54.05
2018-06-27T09:26:14.015Z,53.89
2018-06-27T09:27:14.005Z,53.89
2018-06-27T09:28:13.777Z,53.63
2018-06-27T09:29:14.015Z,52.27
2018-06-27T09:30:13.765Z,51.13
2018-06-27T09:31:14.131Z,51.25
2018-06-27T09:32:14.030Z,50.94
2018-06-27T09:33:14.052Z,51.62
2018-06-27T09:34:14.170Z,52.29
2018-06-27T09:35:13.802Z,54.3
2018-06-27T09:36:14.066Z,53.63
2018-06-27T09:37:13.804Z,53.31
2018-06-27T09:38:14.111Z,53.99
2018-06-27T09:39:14.070Z,53.99
2018-06-27T09:40:14.067Z,53.89
2018-06-27T09:41:13.822Z,53.69
2018-06-27T09:42:13.838Z,53.89
2018-06-27T09:43:13.825Z,53.5
2018-06-27T09:44:14.098Z,53.31
2018-06-27T09:45:14.091Z,53.69
2018-06-27T09:46:14.114Z,53.63
2018-06-27T09:47:13.845Z,53.33
2018-06-27T09:48:13.852Z,52.39
2018-06-27T09:49:14.114Z,52.39
2018-06-27T09:50:14.119Z,52.85
2018-06-27T09:51:13.865Z,53.72
2018-06-27T09:52:13.869Z,53.69
2018-06-27T09:53:14.169Z,54.37
2018-06-27T09:54:14.161Z,54.53
2018-06-27T09:55:14.163Z,54.44
2018-06-27T09:56:13.898Z,54.27
2018-06-27T09:57:14.154Z,54.37
2018-06-27T09:58:14.164Z,54.27
2018-06-27T09:59:14.165Z,54.37
2018-06-27T10:00:14.193Z,53.89
2018-06-27T10:01:14.204Z,53.69
2018-06-27T10:02:14.392Z,54.17
2018-06-27T10:03:14.203Z,54.47
2018-06-27T10:04:14.212Z,54.17
2018-06-27T10:05:14.205Z,54.47
2018-06-27T10:06:14.199Z,53.99
2018-06-27T10:07:14.248Z,54.11
2018-06-27T10:08:14.215Z,53.43
2018-06-27T10:09:14.256Z,53.04
2018-06-27T10:10:14.213Z,52.97
2018-06-27T10:11:14.212Z,52.68
2018-06-27T10:12:14.234Z,52.97
2018-06-27T10:13:14.005Z,52.87
2018-06-27T10:14:14.243Z,52.78
2018-06-27T10:15:14.254Z,52.29
2018-06-27T10:16:14.268Z,51.32
2018-06-27T10:17:14.304Z,51.45
2018-06-27T10:18:15.740Z,52.32
2018-06-27T10:19:14.253Z,51.74
2018-06-27T10:20:14.275Z,51.28
2018-06-27T10:21:14.011Z,50.79
2018-06-27T10:22:14.030Z,50.6
2018-06-27T10:53:32.474Z,52.17
2018-06-27T10:54:32.716Z,51.28
2018-06-27T10:55:32.713Z,52.63
2018-06-27T10:56:32.467Z,52.14
2018-06-27T10:57:32.722Z,52.34
2018-06-27T10:58:32.472Z,51.95
2018-06-27T10:59:32.733Z,51.56
2018-06-27T11:00:32.796Z,51.37
2018-06-27T11:01:32.724Z,50.6
2018-06-27T11:02:32.733Z,51.18
2018-06-27T11:03:32.729Z,50.7
2018-06-27T11:04:32.492Z,51.18
2018-06-27T11:05:32.738Z,51.37
2018-06-27T11:06:32.750Z,51.08
2018-06-27T11:07:32.505Z,51.1
2018-06-27T11:08:32.748Z,50.92
2018-06-27T11:09:32.753Z,50.04
2018-06-27T11:10:32.540Z,50.62
2018-06-27T11:11:32.501Z,48.71
2018-06-27T11:12:32.761Z,48.81
2018-06-27T11:13:32.519Z,48.83
2018-06-27T11:14:32.771Z,48.64
2018-06-27T11:15:32.789Z,48.61
2018-06-27T11:16:32.538Z,48.61
2018-06-27T11:17:32.801Z,48.25
2018-06-27T11:18:32.792Z,46.6
2018-06-27T11:19:32.792Z,46.29
2018-06-27T11:20:32.561Z,46.75
2018-06-27T11:21:32.812Z,47.33
2018-06-27T11:22:32.799Z,48.18
2018-06-27T11:23:32.805Z,48.86
2018-06-27T11:24:32.830Z,48.57
2018-06-27T11:25:32.809Z,48.27
2018-06-27T11:26:32.877Z,48.39
2018-06-27T11:27:32.820Z,48.97
2018-06-27T11:28:32.828Z,47.33
2018-06-27T11:29:32.829Z,46.56
2018-06-27T11:30:32.833Z,46.36
2018-06-27T11:31:32.848Z,46.19
2018-06-27T11:32:32.846Z,46.09
2018-06-27T11:33:32.852Z,45.51
2018-06-27T11:34:32.606Z,44.35
2018-06-27T11:35:32.603Z,42.61
2018-06-27T11:36:32.863Z,43.09
2018-06-27T11:37:32.606Z,43
2018-06-27T11:38:33.103Z,42.51
2018-06-27T11:39:32.876Z,43.19
2018-06-27T11:40:32.638Z,43
2018-06-27T11:41:32.875Z,43.87
2018-06-27T11:42:32.631Z,43.87
2018-06-27T11:43:32.907Z,44.84
2018-06-27T11:44:33.065Z,45.22
2018-06-27T11:45:32.896Z,45.9
2018-06-27T11:46:32.910Z,45.42
2018-06-27T11:47:32.906Z,45.59
2018-06-27T11:48:32.907Z,45.01
2018-06-27T11:49:32.919Z,42.88
2018-06-27T11:50:32.916Z,43.07
2018-06-27T11:51:32.927Z,43.63
2018-06-27T11:52:32.675Z,44.79
2018-06-27T11:53:32.929Z,44.7
2018-06-27T11:54:32.679Z,45.49
2018-06-27T11:55:33.011Z,45.4
2018-06-27T11:56:32.942Z,46.46
2018-06-27T11:57:32.952Z,46.26
2018-06-27T11:58:32.956Z,45.88
2018-06-27T11:59:32.960Z,46.39
2018-06-27T12:00:32.961Z,45.42
2018-06-27T12:01:32.963Z,44.86
2018-06-27T12:02:32.717Z,44.16
2018-06-27T12:03:32.968Z,44.84
2018-06-27T12:04:32.721Z,45.3
2018-06-27T12:05:32.732Z,45.78
2018-06-27T12:06:32.735Z,46.25
2018-06-27T12:07:32.987Z,46.44
2018-06-27T12:08:33.070Z,46.15
2018-06-27T12:09:32.991Z,46.15
2018-06-27T12:10:33.040Z,46.26
2018-06-27T12:11:33.027Z,45.78
2018-06-27T12:12:32.755Z,46.17
2018-06-27T12:13:33.026Z,45.61
2018-06-27T12:14:33.030Z,44.16
2018-06-27T12:15:33.039Z,43.58
2018-06-27T12:16:32.768Z,43.77
2018-06-27T12:17:33.037Z,44.06
2018-06-27T12:18:33.031Z,43.68
2018-06-27T12:19:33.075Z,43.29
2018-06-27T12:20:32.887Z,42.13
2018-06-27T12:21:33.047Z,44.74
2018-06-27T12:22:32.793Z,45.9
2018-06-27T12:23:33.049Z,43.48
2018-06-27T12:24:33.053Z,42.8
2018-06-27T12:25:33.079Z,42.51
2018-06-27T12:26:33.167Z,41.82
2018-06-27T12:27:33.084Z,41.42
2018-06-27T12:28:32.817Z,41.24
2018-06-27T12:29:32.823Z,40.94
2018-06-27T12:30:32.825Z,40.56
2018-06-27T12:31:33.100Z,39.97
2018-06-27T12:32:32.913Z,39.01
2018-06-27T12:33:33.897Z,39.39
2018-06-27T12:34:33.124Z,39.88
2018-06-27T12:35:33.110Z,39.59
2018-06-27T12:36:32.851Z,39.03
2018-06-27T12:37:33.129Z,38.93
2018-06-27T12:38:33.161Z,38.95
2018-06-27T12:39:32.866Z,38.95
2018-06-27T12:40:32.870Z,39.14
2018-06-27T12:41:32.879Z,39.14
2018-06-27T12:42:32.882Z,39.62
2018-06-27T12:43:33.152Z,39.61
2018-06-27T12:44:32.885Z,39.7
2018-06-27T12:45:33.154Z,39.41
2018-06-27T12:46:33.160Z,40.17
2018-06-27T12:47:33.169Z,39.97
2018-06-27T12:48:33.167Z,39.49
2018-06-27T12:49:32.911Z,38.91
2018-06-27T12:50:32.921Z,38.33
2018-06-27T12:51:33.181Z,36.4
2018-06-27T12:52:33.172Z,36.49
2018-06-27T12:53:33.212Z,36.7
2018-06-27T12:54:33.190Z,36.41
2018-06-27T12:55:33.196Z,36.51
2018-06-27T12:56:33.203Z,36.99
2018-06-27T12:57:33.200Z,37.57
2018-06-27T12:58:33.996Z,36.99
2018-06-27T12:59:33.207Z,36.51
2018-06-27T13:00:33.044Z,36.51
2018-06-27T13:01:33.208Z,37.48
2018-06-27T13:02:33.217Z,37.19
2018-06-27T13:03:33.351Z,36.9
2018-06-27T13:04:33.234Z,36.51
2018-06-27T13:05:33.230Z,36.02
2018-06-27T13:06:33.226Z,35.54
2018-06-27T13:07:33.234Z,35.25
2018-06-27T13:08:32.985Z,34.96
2018-06-27T13:09:32.990Z,34.77
2018-06-27T13:10:33.281Z,33.22
2018-06-27T13:11:32.992Z,33.12
2018-06-27T13:12:33.261Z,33.04
2018-06-27T13:13:33.012Z,34.49
2018-06-27T13:14:33.269Z,34.28
2018-06-27T13:15:33.272Z,34.77
2018-06-27T13:16:33.269Z,33.52
2018-06-27T13:17:33.267Z,31.59
2018-06-27T13:18:33.024Z,32.94
2018-06-27T13:19:33.036Z,33.14
2018-06-27T13:20:33.294Z,33.72
2018-06-27T13:21:33.293Z,33.33
2018-06-27T13:22:33.331Z,31.78
2018-06-27T13:23:33.040Z,31.97
2018-06-27T13:24:33.305Z,30.81